Time;durP1;ratioP1;P1;durP2;ratioP2;P2;SDS_P1;SDS_P2;PMS_P1;PMS_P2;Temp;Humidity;BMP_temperature;BMP_pressure;BME280_temperature;BME280_humidity;BME280_pressure;Samples;Min_cycle;Max_cycle;Signal;HPM_P1;HPM_P2
2024/02/10 07:06:53;;;;;;;2.22;1.20;;;;;;;;;;10564697;28;20036;-85
2024/02/10 07:17:06;;;;;;;4.00;1.60;;;;;;;;;;10554497;28;20031;-83
2024/02/10 07:22:56;;;;;;;2.97;1.70;;;;;;;;;;10525646;28;20106;-84
2024/02/10 07:57:04;;;;;;;3.40;1.93;;;;;;;;;;10510594;28;20029;-86
2024/02/10 08:02:09;;;;;;;2.28;1.85;;;;;;;;;;10510952;28;20033;-83
2024/02/10 08:07:11;;;;;;;3.22;1.60;;;;;;;;;;10510769;28;20070;-83
2024/02/10 08:12:23;;;;;;;3.85;1.95;;;;;;;;;;10476860;28;20500;-83
2024/02/10 08:17:26;;;;;;;2.53;1.67;;;;;;;;;;10494972;28;20052;-85
2024/02/10 08:22:36;;;;;;;3.33;1.67;;;;;;;;;;10507602;28;20105;-86
2024/02/10 08:27:39;;;;;;;2.75;1.60;;;;;;;;;;10490992;28;20121;-85
2024/02/10 08:32:40;;;;;;;3.65;1.90;;;;;;;;;;10510310;28;20035;-84
2024/02/10 08:37:42;;;;;;;2.88;1.85;;;;;;;;;;10497910;28;20036;-84
2024/02/10 08:42:43;;;;;;;1.83;1.60;;;;;;;;;;10504787;28;20060;-83
2024/02/10 08:47:45;;;;;;;2.63;1.80;;;;;;;;;;10535058;28;20033;-82
2024/02/10 08:52:47;;;;;;;2.40;1.80;;;;;;;;;;10517726;28;20036;-85
2024/02/10 08:57:50;;;;;;;3.15;1.60;;;;;;;;;;10508625;28;20082;-87
2024/02/10 09:02:53;;;;;;;2.22;1.65;;;;;;;;;;10507936;28;20381;-86
2024/02/10 09:07:54;;;;;;;6.05;1.55;;;;;;;;;;10498551;28;20082;-85
2024/02/10 09:12:57;;;;;;;2.13;1.60;;;;;;;;;;10499726;28;20063;-84
2024/02/10 09:17:58;;;;;;;2.88;1.90;;;;;;;;;;10503618;28;20040;-83
2024/02/10 09:22:59;;;;;;;3.97;2.03;;;;;;;;;;10518159;28;20036;-84
2024/02/10 09:28:00;;;;;;;2.90;1.80;;;;;;;;;;10519349;28;20029;-83
2024/02/10 09:33:04;;;;;;;3.13;1.42;;;;;;;;;;10501886;28;20040;-82
2024/02/10 09:38:07;;;;;;;2.03;1.40;;;;;;;;;;10503240;28;20052;-82
2024/02/10 09:43:09;;;;;;;2.40;1.58;;;;;;;;;;10501875;28;20490;-82
2024/02/10 09:48:10;;;;;;;2.70;1.20;;;;;;;;;;10516169;28;20035;-83
2024/02/10 09:53:12;;;;;;;1.38;1.08;;;;;;;;;;10521620;28;20052;-83
2024/02/10 09:58:13;;;;;;;2.92;1.33;;;;;;;;;;10497867;28;20059;-83
2024/02/10 10:03:14;;;;;;;1.40;1.05;;;;;;;;;;10521762;28;20501;-83
2024/02/10 10:08:21;;;;;;;3.15;1.10;;;;;;;;;;10526022;28;20056;-84
2024/02/10 10:13:24;;;;;;;1.63;1.10;;;;;;;;;;10519498;28;20088;-83
2024/02/10 10:18:25;;;;;;;1.65;1.10;;;;;;;;;;10515396;28;20052;-84
2024/02/10 10:23:31;;;;;;;1.77;0.90;;;;;;;;;;10511582;28;20033;-81
2024/02/10 10:28:36;;;;;;;2.55;1.00;;;;;;;;;;10517089;28;20035;-84
2024/02/10 10:33:37;;;;;;;2.20;1.17;;;;;;;;;;10502976;28;20037;-85
2024/02/10 10:38:38;;;;;;;1.77;1.00;;;;;;;;;;10500568;28;20059;-85
2024/02/10 10:43:46;;;;;;;1.60;1.00;;;;;;;;;;10497982;28;20407;-84
2024/02/10 10:48:48;;;;;;;3.17;1.10;;;;;;;;;;10497174;28;20036;-84
2024/02/10 10:53:49;;;;;;;1.92;1.23;;;;;;;;;;10518376;28;20091;-84
2024/02/10 10:59:01;;;;;;;1.98;1.20;;;;;;;;;;10500285;28;20029;-84
2024/02/10 11:04:02;;;;;;;3.33;1.48;;;;;;;;;;10500653;28;20061;-83
2024/02/10 11:09:06;;;;;;;2.28;1.60;;;;;;;;;;10502455;28;20116;-84
2024/02/10 11:14:12;;;;;;;2.58;1.77;;;;;;;;;;10535648;28;20041;-84
2024/02/10 11:19:13;;;;;;;3.03;1.77;;;;;;;;;;10523720;28;20040;-83
2024/02/10 11:24:16;;;;;;;3.58;1.40;;;;;;;;;;10501149;28;20100;-82
2024/02/10 11:29:20;;;;;;;4.07;1.23;;;;;;;;;;10508681;28;20127;-82
2024/02/10 11:34:21;;;;;;;4.20;1.40;;;;;;;;;;10521300;28;20032;-81
2024/02/10 11:39:23;;;;;;;3.28;1.05;;;;;;;;;;10505820;28;20048;-82
2024/02/10 11:44:26;;;;;;;2.13;0.90;;;;;;;;;;10506425;28;20058;-84
2024/02/10 11:49:27;;;;;;;1.77;1.00;;;;;;;;;;10511854;28;20399;-84
2024/02/10 11:54:29;;;;;;;2.65;1.25;;;;;;;;;;10496131;28;20052;-84
2024/02/10 11:59:37;;;;;;;2.97;1.48;;;;;;;;;;10498534;28;20074;-84
2024/02/10 12:05:04;;;;;;;2.35;1.55;;;;;;;;;;10496405;28;20036;-85
2024/02/10 12:10:05;;;;;;;3.58;1.58;;;;;;;;;;10503592;28;20027;-84
2024/02/10 12:15:10;;;;;;;2.47;1.60;;;;;;;;;;10510883;28;20442;-83
2024/02/10 12:20:21;;;;;;;4.35;1.60;;;;;;;;;;10530566;28;20032;-84
2024/02/10 12:25:22;;;;;;;;;;;;;;;;;;10535458;28;20032;-84
2024/02/10 12:30:23;;;;;;;;;;;;;;;;;;10543260;28;19972;-82
2024/02/10 12:35:24;;;;;;;3.47;1.50;;;;;;;;;;10529035;28;19904;-82
2024/02/10 12:40:26;;;;;;;4.05;2.00;;;;;;;;;;10525203;28;20033;-82
2024/02/10 12:45:27;;;;;;;5.45;1.95;;;;;;;;;;10503285;28;20028;-81
2024/02/10 12:50:28;;;;;;;3.28;2.17;;;;;;;;;;10494294;28;20036;-80
2024/02/10 12:55:29;;;;;;;4.50;1.90;;;;;;;;;;10509190;28;20032;-78
2024/02/10 13:00:30;;;;;;;2.45;1.73;;;;;;;;;;10534713;22;20063;-84
2024/02/10 13:06:15;;;;;;;2.97;1.60;;;;;;;;;;10513121;28;20060;-86
2024/02/10 13:11:22;;;;;;;4.90;2.63;;;;;;;;;;10453583;28;20033;-85
2024/02/10 13:16:26;;;;;;;4.80;2.83;;;;;;;;;;10451947;28;20037;-85
2024/02/10 13:21:27;;;;;;;4.63;2.72;;;;;;;;;;10465502;28;20069;-82
2024/02/10 13:26:39;;;;;;;4.25;2.33;;;;;;;;;;10446921;28;20036;-82
2024/02/10 13:31:40;;;;;;;5.50;2.15;;;;;;;;;;10445705;28;20036;-83
2024/02/10 14:03:27;;;;;;;2.05;1.45;;;;;;;;;;10473820;28;20033;-84
2024/02/10 14:08:49;;;;;;;4.28;1.48;;;;;;;;;;10472237;28;20028;-84
2024/02/10 14:14:06;;;;;;;2.57;1.30;;;;;;;;;;10466900;28;20032;-82
2024/02/10 14:19:21;;;;;;;3.40;1.80;;;;;;;;;;10453151;28;20101;-83
2024/02/10 14:24:31;;;;;;;2.78;1.73;;;;;;;;;;10453742;28;20489;-82
2024/02/10 14:29:38;;;;;;;1.80;1.38;;;;;;;;;;10463616;28;20036;-82
2024/02/10 14:35:19;;;;;;;2.88;1.67;;;;;;;;;;10470450;28;20033;-84
2024/02/10 14:40:35;;;;;;;2.38;1.45;;;;;;;;;;10455754;28;20067;-84
2024/02/10 14:45:57;;;;;;;1.63;1.30;;;;;;;;;;10465676;28;20036;-83
2024/02/10 14:50:59;;;;;;;4.38;1.95;;;;;;;;;;10449373;28;20052;-84
2024/02/10 14:56:23;;;;;;;3.90;2.10;;;;;;;;;;10464942;28;20052;-84
2024/02/10 15:01:24;;;;;;;2.45;1.60;;;;;;;;;;10448742;28;20094;-83
2024/02/10 15:06:33;;;;;;;2.00;1.10;;;;;;;;;;10472784;28;20104;-84
2024/02/10 15:11:36;;;;;;;1.98;1.25;;;;;;;;;;10454814;28;20087;-84
2024/02/10 15:16:39;;;;;;;4.82;2.60;;;;;;;;;;10452330;28;20032;-84
2024/02/10 15:21:49;;;;;;;3.13;2.13;;;;;;;;;;10469457;28;20033;-83
2024/02/10 15:27:18;;;;;;;4.63;2.95;;;;;;;;;;10450511;28;20036;-83
2024/02/10 15:32:21;;;;;;;2.47;1.83;;;;;;;;;;10452140;28;20556;-83
2024/02/10 15:37:23;;;;;;;4.00;1.80;;;;;;;;;;10453843;28;20037;-84
2024/02/10 15:42:30;;;;;;;3.55;2.00;;;;;;;;;;10464165;28;20048;-85
2024/02/10 15:47:42;;;;;;;2.33;1.60;;;;;;;;;;10466080;28;20546;-85
2024/02/10 15:52:45;;;;;;;5.85;2.58;;;;;;;;;;10467861;28;20037;-85
2024/02/10 15:57:52;;;;;;;2.55;1.75;;;;;;;;;;10465410;28;20096;-84
2024/02/10 16:02:53;;;;;;;3.42;1.70;;;;;;;;;;10463166;28;20033;-85
2024/02/10 16:07:54;;;;;;;3.10;2.05;;;;;;;;;;10464115;28;20477;-84
2024/02/10 16:12:55;;;;;;;3.38;1.70;;;;;;;;;;10467396;28;20037;-84
2024/02/10 16:17:58;;;;;;;3.78;1.90;;;;;;;;;;10470679;28;20064;-84
2024/02/10 16:22:59;;;;;;;5.00;2.35;;;;;;;;;;10470549;28;20052;-83
2024/02/10 16:28:01;;;;;;;1.70;1.27;;;;;;;;;;10459480;28;20049;-84
2024/02/10 16:33:02;;;;;;;3.38;2.15;;;;;;;;;;10480259;28;20063;-85
2024/02/10 16:38:03;;;;;;;2.72;1.83;;;;;;;;;;10463379;28;20032;-84
2024/02/10 16:43:05;;;;;;;2.75;1.95;;;;;;;;;;10463773;28;20044;-84
2024/02/10 16:48:09;;;;;;;2.83;2.05;;;;;;;;;;10467930;28;20040;-84
2024/02/10 16:53:10;;;;;;;4.32;2.60;;;;;;;;;;10488122;28;20116;-84
2024/02/10 16:58:12;;;;;;;2.40;1.77;;;;;;;;;;10477136;28;20033;-84
2024/02/10 17:03:13;;;;;;;3.65;2.53;;;;;;;;;;10457625;28;20041;-85
2024/02/10 17:08:15;;;;;;;4.30;3.15;;;;;;;;;;10470474;28;20057;-84
2024/02/10 17:13:16;;;;;;;5.53;4.10;;;;;;;;;;10465868;28;20072;-84
2024/02/10 17:18:17;;;;;;;3.28;2.35;;;;;;;;;;10508559;28;20048;-82
2024/02/10 17:23:22;;;;;;;3.28;2.20;;;;;;;;;;10482516;28;20053;-84
2024/02/10 17:28:23;;;;;;;3.72;2.40;;;;;;;;;;10458836;28;20049;-84
2024/02/10 17:33:25;;;;;;;4.40;2.80;;;;;;;;;;10461477;28;20149;-85
2024/02/10 17:38:26;;;;;;;3.67;2.95;;;;;;;;;;10459418;28;20044;-85
2024/02/10 17:43:27;;;;;;;2.80;2.05;;;;;;;;;;10476606;28;20405;-85
2024/02/10 17:54:48;;;;;;;3.22;2.20;;;;;;;;;;10475462;28;20088;-85
2024/02/10 17:59:49;;;;;;;4.63;2.90;;;;;;;;;;10459034;28;20052;-85
2024/02/10 18:04:50;;;;;;;3.90;3.38;;;;;;;;;;10458657;28;20029;-85
2024/02/10 18:09:51;;;;;;;5.57;3.47;;;;;;;;;;10457128;28;20488;-85
2024/02/10 18:14:52;;;;;;;4.15;2.92;;;;;;;;;;10455693;28;20029;-85
2024/02/10 18:19:54;;;;;;;3.83;2.75;;;;;;;;;;10472747;28;20401;-85
2024/02/10 18:25:10;;;;;;;3.88;2.58;;;;;;;;;;10454262;28;20037;-85
2024/02/10 18:30:23;;;;;;;4.25;2.95;;;;;;;;;;10475609;28;20048;-84
2024/02/10 18:35:24;;;;;;;3.90;2.75;;;;;;;;;;10457184;28;20037;-85
2024/02/10 18:40:37;;;;;;;3.72;2.97;;;;;;;;;;10473648;28;20033;-85
2024/02/10 18:45:43;;;;;;;4.95;3.85;;;;;;;;;;10462339;28;20529;-85
2024/02/10 18:50:46;;;;;;;3.63;2.75;;;;;;;;;;10472493;28;20468;-85
2024/02/10 18:55:47;;;;;;;4.20;2.88;;;;;;;;;;10475197;28;20048;-85
2024/02/10 19:17:54;;;;;;;;;;;;;;;;;;10379155;28;20062;-83
2024/02/10 19:29:20;;;;;;;5.15;3.80;;;;;;;;;;10397004;28;20022;-81
2024/02/10 19:34:43;;;;;;;6.22;5.63;;;;;;;;;;10530588;28;20059;-82
2024/02/10 19:40:02;;;;;;;3.08;2.45;;;;;;;;;;10543540;28;20136;-82
2024/02/10 19:56:30;;;;;;;4.25;3.60;;;;;;;;;;10550804;28;20036;-82
2024/02/10 20:07:52;;;;;;;3.45;2.90;;;;;;;;;;10504521;28;20454;-83
